Time;durP1;ratioP1;P1;durP2;ratioP2;P2;SDS_P1;SDS_P2;PMS_P1;PMS_P2;Temp;Humidity;BMP_temperature;BMP_pressure;BME280_temperature;BME280_humidity;BME280_pressure;Samples;Min_cycle;Max_cycle;Signal;HPM_P1;HPM_P2
2021/10/30 00:01:57;;;;;;;36.30;20.63;;;4.60;99.90;;;;;;5008808;28;20218;-75
2021/10/30 00:04:23;;;;;;;42.25;22.20;;;4.50;99.90;;;;;;5009021;28;20202;-75
2021/10/30 00:06:49;;;;;;;40.70;21.77;;;4.50;99.90;;;;;;5010287;28;20222;-75
2021/10/30 00:09:14;;;;;;;34.22;22.48;;;4.50;99.90;;;;;;5010230;28;20241;-75
2021/10/30 00:11:41;;;;;;;36.88;22.70;;;4.40;99.90;;;;;;5008463;28;20173;-75
2021/10/30 00:14:07;;;;;;;37.70;21.38;;;4.40;99.90;;;;;;5008891;28;20167;-75
2021/10/30 00:16:32;;;;;;;36.67;21.02;;;4.30;99.90;;;;;;5008844;28;20239;-76
2021/10/30 00:18:58;;;;;;;37.42;20.30;;;4.30;99.90;;;;;;5009982;28;20253;-75
2021/10/30 00:21:24;;;;;;;37.70;20.17;;;4.30;99.90;;;;;;5010028;28;20226;-75
2021/10/30 00:23:51;;;;;;;35.03;21.48;;;4.40;99.90;;;;;;5009995;28;20165;-75
2021/10/30 00:26:17;;;;;;;38.88;21.27;;;4.40;99.90;;;;;;5009986;28;20230;-75
2021/10/30 00:28:44;;;;;;;37.30;19.92;;;4.40;99.90;;;;;;5009917;28;20209;-75
2021/10/30 00:31:10;;;;;;;37.13;20.73;;;4.40;99.90;;;;;;5024750;28;20197;-75
2021/10/30 00:33:36;;;;;;;34.15;21.02;;;4.40;99.90;;;;;;5029526;28;20166;-76
2021/10/30 00:36:03;;;;;;;41.25;21.80;;;4.40;99.90;;;;;;5028212;28;20177;-76
2021/10/30 00:38:30;;;;;;;34.00;20.10;;;4.50;99.90;;;;;;5029354;28;20177;-76
2021/10/30 00:41:02;;;;;;;35.60;20.33;;;4.50;99.90;;;;;;5029472;28;20221;-75
2021/10/30 00:43:29;;;;;;;42.10;21.42;;;4.60;99.90;;;;;;5029476;28;20178;-75
2021/10/30 00:45:55;;;;;;;33.08;20.35;;;4.60;99.90;;;;;;5029421;28;20155;-76
2021/10/30 00:48:20;;;;;;;37.40;21.55;;;4.70;99.90;;;;;;5029308;28;20216;-75
2021/10/30 00:50:46;;;;;;;44.28;22.50;;;4.70;99.90;;;;;;5029366;28;20250;-75
2021/10/30 00:53:13;;;;;;;37.88;21.45;;;4.70;99.90;;;;;;5029347;28;20166;-75
2021/10/30 00:55:42;;;;;;;38.10;22.10;;;4.70;99.90;;;;;;5028070;28;20627;-76
2021/10/30 00:58:10;;;;;;;36.97;20.02;;;4.80;99.90;;;;;;5029303;28;20245;-75
2021/10/30 01:00:36;;;;;;;40.70;22.45;;;4.80;99.90;;;;;;5027989;28;20213;-76
2021/10/30 01:03:02;;;;;;;36.95;21.67;;;4.80;99.90;;;;;;5027802;28;20225;-75
2021/10/30 01:05:28;;;;;;;40.58;20.73;;;4.90;99.90;;;;;;5029348;28;20592;-75
2021/10/30 01:07:54;;;;;;;40.78;22.55;;;4.90;99.90;;;;;;5029256;28;20159;-76
2021/10/30 01:10:20;;;;;;;31.98;18.60;;;4.90;99.90;;;;;;5029031;28;20209;-76
2021/10/30 01:12:47;;;;;;;36.58;21.65;;;5.00;99.90;;;;;;5029299;28;20182;-75
2021/10/30 01:15:13;;;;;;;48.58;24.45;;;5.10;99.90;;;;;;5029235;28;20245;-75
2021/10/30 01:17:39;;;;;;;45.55;22.73;;;5.10;99.90;;;;;;5029098;28;20162;-76
2021/10/30 01:20:06;;;;;;;39.28;22.75;;;5.10;99.90;;;;;;5029056;28;20283;-76
2021/10/30 01:22:35;;;;;;;49.15;24.73;;;5.10;99.90;;;;;;5027800;28;20170;-75
2021/10/30 01:25:02;;;;;;;58.38;24.15;;;5.10;99.90;;;;;;5032427;28;20238;-75
2021/10/30 01:27:28;;;;;;;80.38;23.92;;;5.00;99.90;;;;;;5033012;28;20193;-75
2021/10/30 01:29:54;;;;;;;49.60;23.13;;;5.00;99.90;;;;;;5031409;28;20217;-75
2021/10/30 01:32:21;;;;;;;90.03;24.08;;;5.00;99.90;;;;;;5031518;28;20166;-76
2021/10/30 01:34:47;;;;;;;42.92;21.48;;;5.00;99.90;;;;;;5031428;28;20177;-75
2021/10/30 01:37:13;;;;;;;46.03;21.42;;;5.00;99.90;;;;;;5032622;28;20237;-76
2021/10/30 01:39:40;;;;;;;49.92;19.85;;;5.10;99.90;;;;;;5032628;28;20288;-76
2021/10/30 01:42:06;;;;;;;75.80;19.95;;;5.20;99.90;;;;;;5032607;28;20166;-76
2021/10/30 01:44:32;;;;;;;60.15;20.30;;;4.90;99.90;;;;;;5031288;28;20241;-75
2021/10/30 01:47:00;;;;;;;53.25;19.27;;;4.70;99.90;;;;;;5031278;28;20244;-76
2021/10/30 01:49:28;;;;;;;34.75;20.23;;;4.80;99.90;;;;;;5031019;28;20198;-76
2021/10/30 01:51:56;;;;;;;45.92;22.15;;;4.90;99.90;;;;;;5031300;28;20170;-76
2021/10/30 01:54:25;;;;;;;69.25;23.23;;;5.00;99.90;;;;;;5031093;28;20170;-76
2021/10/30 01:56:51;;;;;;;54.70;21.77;;;5.00;99.90;;;;;;5031104;28;20166;-75
2021/10/30 01:59:17;;;;;;;50.80;22.80;;;5.00;99.90;;;;;;5032373;28;20193;-77
2021/10/30 02:01:42;;;;;;;41.80;22.23;;;4.90;99.90;;;;;;5030743;28;20717;-76
2021/10/30 02:04:08;;;;;;;78.43;24.15;;;4.80;99.90;;;;;;5030954;28;20720;-76
2021/10/30 02:06:34;;;;;;;116.15;24.58;;;4.80;99.90;;;;;;5032170;28;20159;-76
2021/10/30 02:09:00;;;;;;;56.95;23.20;;;4.80;99.90;;;;;;5030860;28;20590;-76
2021/10/30 02:11:26;;;;;;;117.68;24.27;;;4.70;99.90;;;;;;5030664;28;20221;-76
2021/10/30 02:13:52;;;;;;;62.13;22.80;;;4.70;99.90;;;;;;5032107;28;20178;-76
2021/10/30 02:16:18;;;;;;;124.00;24.45;;;4.70;99.90;;;;;;5032041;28;20171;-75
2021/10/30 02:18:44;;;;;;;82.28;22.77;;;4.60;99.90;;;;;;5030661;28;20174;-75
2021/10/30 02:21:09;;;;;;;51.40;23.02;;;4.70;99.90;;;;;;5031887;28;20268;-75
2021/10/30 02:23:35;;;;;;;58.95;22.05;;;4.70;99.90;;;;;;5031957;28;20189;-75
2021/10/30 02:26:03;;;;;;;86.93;23.33;;;4.60;99.90;;;;;;5030446;28;20166;-76
2021/10/30 02:28:29;;;;;;;45.92;21.90;;;4.70;99.90;;;;;;5031712;28;20166;-76
2021/10/30 02:30:55;;;;;;;53.00;23.15;;;4.70;99.90;;;;;;5031725;28;20249;-76
2021/10/30 02:33:21;;;;;;;92.10;24.17;;;4.90;99.90;;;;;;5031642;28;20154;-75
2021/10/30 02:35:47;;;;;;;68.05;22.45;;;4.80;99.90;;;;;;5031113;28;20213;-76
2021/10/30 02:38:12;;;;;;;55.10;22.58;;;4.70;99.90;;;;;;5030082;28;20300;-76
2021/10/30 02:40:39;;;;;;;52.40;22.67;;;4.80;99.90;;;;;;5031339;28;20197;-76
2021/10/30 02:43:05;;;;;;;90.78;25.30;;;4.70;99.90;;;;;;5031402;28;20229;-76
2021/10/30 02:45:30;;;;;;;106.47;24.15;;;4.70;99.90;;;;;;5031296;28;20166;-76
2021/10/30 02:47:56;;;;;;;77.65;23.63;;;4.60;99.90;;;;;;5031267;28;20162;-76
2021/10/30 02:50:23;;;;;;;75.95;21.40;;;4.40;99.90;;;;;;5030963;28;20284;-76
2021/10/30 02:52:49;;;;;;;47.58;21.63;;;4.40;99.90;;;;;;5029825;28;20181;-76
2021/10/30 02:55:15;;;;;;;90.82;24.73;;;4.40;99.90;;;;;;5030991;28;20498;-76
2021/10/30 02:57:48;;;;;;;88.90;23.90;;;4.20;99.90;;;;;;5031093;28;20169;-76
2021/10/30 03:00:15;;;;;;;98.32;22.95;;;4.20;99.90;;;;;;5029642;28;20198;-76
2021/10/30 03:02:41;;;;;;;85.07;23.33;;;4.20;99.90;;;;;;5029491;28;20221;-76
2021/10/30 03:05:07;;;;;;;66.68;23.60;;;4.10;99.90;;;;;;5029530;28;20193;-76
2021/10/30 03:07:33;;;;;;;60.15;24.38;;;4.10;99.90;;;;;;5029372;28;20205;-76
2021/10/30 03:09:59;;;;;;;76.10;25.55;;;4.20;99.90;;;;;;5030572;28;20210;-76
2021/10/30 03:12:25;;;;;;;52.35;22.52;;;4.20;99.90;;;;;;5029855;28;20213;-76
2021/10/30 03:14:51;;;;;;;47.55;21.35;;;4.20;99.90;;;;;;5030431;28;20162;-76
2021/10/30 03:17:17;;;;;;;43.45;22.92;;;4.20;99.90;;;;;;5030667;28;20182;-76
2021/10/30 03:19:43;;;;;;;51.42;23.90;;;4.40;99.90;;;;;;5029154;28;20304;-76
2021/10/30 03:22:09;;;;;;;73.10;24.00;;;4.40;99.90;;;;;;5030588;28;20185;-76
2021/10/30 03:24:36;;;;;;;53.95;22.08;;;4.50;99.90;;;;;;5030587;28;20186;-76
2021/10/30 03:27:02;;;;;;;53.17;24.05;;;4.50;99.90;;;;;;5030505;28;20178;-76
2021/10/30 03:29:28;;;;;;;49.90;22.42;;;4.50;99.90;;;;;;5030403;28;20236;-77
2021/10/30 03:31:54;;;;;;;40.28;21.45;;;4.50;99.90;;;;;;5030263;28;20158;-76
2021/10/30 03:34:20;;;;;;;48.90;22.42;;;4.50;99.90;;;;;;5030404;28;20154;-77
2021/10/30 03:36:45;;;;;;;54.15;23.88;;;4.50;99.90;;;;;;5030447;28;20185;-76
2021/10/30 03:39:11;;;;;;;53.90;22.92;;;4.50;99.90;;;;;;5030281;28;20168;-76
2021/10/30 03:41:37;;;;;;;51.17;23.70;;;4.40;99.90;;;;;;5030442;28;20162;-76
2021/10/30 03:44:04;;;;;;;44.05;23.42;;;4.40;99.90;;;;;;5030332;28;20158;-76
2021/10/30 03:46:29;;;;;;;44.25;22.33;;;4.40;99.90;;;;;;5028156;28;20170;-76
2021/10/30 03:48:55;;;;;;;53.25;24.70;;;4.40;99.90;;;;;;5030067;28;20182;-76
2021/10/30 03:51:21;;;;;;;47.47;23.77;;;4.50;99.90;;;;;;5028682;28;20261;-76
2021/10/30 03:53:47;;;;;;;53.97;21.92;;;4.60;99.90;;;;;;5030089;28;20181;-76
2021/10/30 03:56:13;;;;;;;53.90;22.63;;;4.60;99.90;;;;;;5028879;28;20229;-76
2021/10/30 03:58:39;;;;;;;70.57;25.73;;;4.60;99.90;;;;;;5029996;28;20162;-76
2021/10/30 04:01:04;;;;;;;45.22;23.80;;;4.60;99.90;;;;;;5030651;28;20220;-77
2021/10/30 04:03:30;;;;;;;72.30;24.73;;;4.60;99.90;;;;;;5049705;28;20169;-76
2021/10/30 04:05:56;;;;;;;53.22;23.50;;;4.40;99.90;;;;;;5049669;28;20154;-76
2021/10/30 04:08:22;;;;;;;47.58;23.88;;;4.40;99.90;;;;;;5031804;28;20177;-76
2021/10/30 04:10:51;;;;;;;53.70;24.90;;;4.40;99.90;;;;;;5031624;28;20197;-76
2021/10/30 04:13:17;;;;;;;46.25;23.17;;;4.50;99.90;;;;;;5031814;28;20183;-76
2021/10/30 04:15:43;;;;;;;54.42;23.58;;;4.50;99.90;;;;;;5031694;28;20237;-76
2021/10/30 04:18:09;;;;;;;44.58;23.58;;;4.60;99.90;;;;;;5031562;28;20176;-76
2021/10/30 04:20:34;;;;;;;58.42;24.73;;;4.60;99.90;;;;;;5031439;28;20203;-76
2021/10/30 04:23:00;;;;;;;59.28;24.63;;;4.60;99.90;;;;;;5049449;28;20189;-77
2021/10/30 04:25:26;;;;;;;46.60;26.40;;;4.50;99.90;;;;;;5049237;28;20157;-76
2021/10/30 04:27:52;;;;;;;59.38;24.95;;;4.60;99.90;;;;;;5031457;28;20180;-76
2021/10/30 04:30:18;;;;;;;70.90;27.17;;;4.60;99.90;;;;;;5031293;28;20280;-76
2021/10/30 04:32:44;;;;;;;60.00;27.92;;;4.30;99.90;;;;;;5049286;28;20161;-76
2021/10/30 04:35:11;;;;;;;51.30;24.90;;;4.30;99.90;;;;;;5031296;28;20180;-76
2021/10/30 04:37:37;;;;;;;55.70;25.10;;;4.20;99.90;;;;;;5031258;28;20245;-76
2021/10/30 04:40:05;;;;;;;50.95;24.20;;;4.10;99.90;;;;;;5049098;28;20276;-76
2021/10/30 04:42:30;;;;;;;67.28;25.42;;;4.10;99.90;;;;;;5049043;28;20215;-76
2021/10/30 04:44:56;;;;;;;61.40;23.77;;;4.20;99.90;;;;;;5049163;28;20161;-77
2021/10/30 04:47:22;;;;;;;55.92;24.63;;;4.20;99.90;;;;;;5049054;28;20184;-76
2021/10/30 04:49:49;;;;;;;79.15;28.92;;;4.30;99.90;;;;;;5031049;28;20220;-76
2021/10/30 04:52:16;;;;;;;67.97;23.20;;;4.40;99.90;;;;;;5048983;28;20256;-76
2021/10/30 04:54:43;;;;;;;60.70;25.65;;;4.40;99.90;;;;;;5048983;28;20157;-76
2021/10/30 04:57:09;;;;;;;54.22;25.33;;;4.40;99.90;;;;;;5049425;28;20196;-76
2021/10/30 04:59:34;;;;;;;56.33;23.80;;;4.40;99.90;;;;;;5035356;28;20196;-77
2021/10/30 05:02:01;;;;;;;60.17;25.65;;;4.40;99.90;;;;;;5031749;28;20243;-76
2021/10/30 05:04:27;;;;;;;56.63;22.67;;;4.40;99.90;;;;;;5033162;28;20280;-76
2021/10/30 05:06:53;;;;;;;51.15;25.20;;;4.50;99.90;;;;;;5033140;28;20170;-77
2021/10/30 05:09:19;;;;;;;50.53;23.85;;;4.50;99.90;;;;;;5031764;28;20217;-76
2021/10/30 05:11:44;;;;;;;44.60;21.23;;;4.50;99.90;;;;;;5033163;28;20204;-76
2021/10/30 05:14:10;;;;;;;47.30;22.60;;;4.60;99.90;;;;;;5033198;28;20158;-76
2021/10/30 05:16:36;;;;;;;46.03;22.52;;;4.60;99.90;;;;;;5033164;28;20181;-77
2021/10/30 05:19:03;;;;;;;61.08;25.05;;;4.60;99.90;;;;;;5032947;28;20155;-76
2021/10/30 05:21:28;;;;;;;46.42;20.98;;;4.60;99.90;;;;;;5031548;28;20744;-76
2021/10/30 05:23:56;;;;;;;50.47;22.63;;;4.50;99.90;;;;;;5031588;28;20166;-76
2021/10/30 05:26:23;;;;;;;59.40;22.52;;;4.40;99.90;;;;;;5032782;28;20230;-76
2021/10/30 05:28:49;;;;;;;79.57;24.83;;;4.30;99.90;;;;;;5032668;28;20190;-76
2021/10/30 05:31:15;;;;;;;55.03;21.55;;;4.20;99.90;;;;;;5031515;28;20217;-77
2021/10/30 05:33:41;;;;;;;36.90;21.13;;;4.10;99.90;;;;;;5031674;28;20189;-77
2021/10/30 05:36:09;;;;;;;72.93;22.92;;;4.10;99.90;;;;;;5031431;28;20189;-77
2021/10/30 05:38:36;;;;;;;40.83;21.35;;;4.10;99.90;;;;;;5031530;28;20186;-76
2021/10/30 05:41:02;;;;;;;43.53;21.85;;;4.10;99.90;;;;;;5032420;28;20584;-76
2021/10/30 05:43:28;;;;;;;44.15;22.25;;;4.10;99.90;;;;;;5032431;28;20154;-76
2021/10/30 05:45:53;;;;;;;43.58;21.45;;;4.10;99.90;;;;;;5032509;28;20165;-77
2021/10/30 05:48:19;;;;;;;61.45;21.63;;;4.20;99.90;;;;;;5032599;28;20174;-76
2021/10/30 05:50:46;;;;;;;42.15;22.30;;;4.40;99.90;;;;;;5030756;28;20213;-76
2021/10/30 05:53:12;;;;;;;60.50;22.25;;;4.40;99.90;;;;;;5032168;28;20257;-77
2021/10/30 05:55:37;;;;;;;41.70;22.33;;;4.40;99.90;;;;;;5030997;28;20173;-76
2021/10/30 05:58:03;;;;;;;28.83;15.77;;;4.40;99.90;;;;;;5031639;28;20417;-77
2021/10/30 06:00:29;;;;;;;45.72;22.58;;;4.60;99.90;;;;;;5032220;28;20571;-77
2021/10/30 06:02:59;;;;;;;45.85;21.88;;;4.60;99.90;;;;;;5046694;28;20225;-76
2021/10/30 06:05:25;;;;;;;39.55;20.77;;;4.70;99.90;;;;;;5050388;28;20181;-76
2021/10/30 06:07:51;;;;;;;40.10;21.17;;;4.70;99.90;;;;;;5051933;28;20158;-77
2021/10/30 06:10:16;;;;;;;41.10;20.45;;;4.60;99.90;;;;;;5049585;28;20223;-77
2021/10/30 06:12:42;;;;;;;45.63;21.48;;;4.60;99.90;;;;;;5051689;28;20168;-77
2021/10/30 06:15:09;;;;;;;37.95;19.30;;;4.60;99.90;;;;;;5050477;28;20177;-77
2021/10/30 06:17:35;;;;;;;36.67;20.35;;;4.50;99.90;;;;;;5051736;28;20169;-76
2021/10/30 06:20:02;;;;;;;39.95;19.40;;;4.60;99.90;;;;;;5050200;28;20197;-77
2021/10/30 06:22:28;;;;;;;40.30;21.00;;;4.60;99.90;;;;;;5051630;28;20165;-76
2021/10/30 06:24:54;;;;;;;44.47;22.52;;;4.70;99.90;;;;;;5051056;28;20162;-76
2021/10/30 06:27:19;;;;;;;33.40;19.17;;;4.60;99.90;;;;;;5050191;28;20161;-76
2021/10/30 06:29:46;;;;;;;40.25;20.80;;;4.60;99.90;;;;;;5049861;28;20241;-77
2021/10/30 06:32:12;;;;;;;37.13;18.75;;;4.60;99.90;;;;;;5049902;28;20169;-76
2021/10/30 06:34:37;;;;;;;45.83;21.25;;;4.70;99.90;;;;;;5049096;28;20281;-77
2021/10/30 06:37:04;;;;;;;36.80;18.85;;;4.70;99.90;;;;;;5050326;28;20220;-76
2021/10/30 06:39:29;;;;;;;43.95;20.27;;;4.60;99.90;;;;;;5050782;28;20165;-76
2021/10/30 06:41:55;;;;;;;37.88;18.33;;;4.60;99.90;;;;;;5049946;28;20177;-76
2021/10/30 06:44:21;;;;;;;40.28;20.23;;;4.70;99.90;;;;;;5049940;28;20240;-76
2021/10/30 06:46:49;;;;;;;35.75;19.73;;;4.60;99.90;;;;;;5051193;28;20193;-76
2021/10/30 06:49:15;;;;;;;36.40;19.02;;;4.40;99.90;;;;;;5051051;28;20219;-76
2021/10/30 06:51:41;;;;;;;52.45;21.63;;;4.40;99.90;;;;;;5049562;28;20169;-76
2021/10/30 06:54:08;;;;;;;40.30;19.65;;;4.40;99.90;;;;;;5049629;28;20196;-76
2021/10/30 06:56:36;;;;;;;32.78;18.48;;;4.50;99.90;;;;;;5034607;28;20206;-76
2021/10/30 06:59:06;;;;;;;37.75;19.35;;;4.50;99.90;;;;;;5031089;28;20258;-76
2021/10/30 07:01:35;;;;;;;35.40;19.50;;;4.60;99.90;;;;;;5029088;28;20309;-76
2021/10/30 07:04:02;;;;;;;43.22;18.35;;;4.30;99.90;;;;;;5030653;28;20177;-76
2021/10/30 07:06:27;;;;;;;44.28;17.40;;;4.10;99.90;;;;;;5030687;28;20158;-76
2021/10/30 07:08:56;;;;;;;30.73;17.83;;;3.90;99.90;;;;;;5029153;28;20250;-76
2021/10/30 07:11:22;;;;;;;42.92;19.52;;;3.90;99.90;;;;;;5030282;28;20182;-76
2021/10/30 07:13:48;;;;;;;53.95;20.38;;;3.90;99.90;;;;;;5030527;28;20172;-76
2021/10/30 07:16:15;;;;;;;45.05;21.13;;;4.00;99.90;;;;;;5030774;28;20181;-76
2021/10/30 07:18:42;;;;;;;31.60;18.77;;;4.00;99.90;;;;;;5030735;28;20159;-76
2021/10/30 07:21:08;;;;;;;39.22;19.10;;;4.10;99.90;;;;;;5029351;28;20221;-75
2021/10/30 07:23:34;;;;;;;39.78;20.52;;;4.20;99.90;;;;;;5030665;28;20163;-76
2021/10/30 07:26:00;;;;;;;41.10;19.98;;;4.30;99.90;;;;;;5030437;28;20173;-76
2021/10/30 07:28:26;;;;;;;37.42;18.67;;;4.50;99.90;;;;;;5030557;28;20159;-76
2021/10/30 07:30:52;;;;;;;49.15;21.30;;;4.70;99.90;;;;;;5029223;28;20194;-76
2021/10/30 07:33:18;;;;;;;54.25;21.80;;;4.80;99.90;;;;;;5030404;28;20212;-77
2021/10/30 07:35:44;;;;;;;43.33;19.83;;;4.80;99.90;;;;;;5030399;28;20158;-77
2021/10/30 07:38:10;;;;;;;42.90;21.20;;;4.80;99.90;;;;;;5030173;28;20160;-76
2021/10/30 07:40:36;;;;;;;46.80;21.98;;;4.80;99.90;;;;;;5030284;28;20204;-75
2021/10/30 07:43:02;;;;;;;48.83;22.45;;;4.80;99.90;;;;;;5029994;28;20654;-76
2021/10/30 07:45:30;;;;;;;49.15;23.13;;;4.70;99.90;;;;;;5023164;28;20199;-75
2021/10/30 07:47:57;;;;;;;43.00;22.63;;;4.50;99.90;;;;;;5022005;28;20170;-77
2021/10/30 07:50:23;;;;;;;51.58;20.85;;;4.40;99.90;;;;;;5012747;28;20214;-78
2021/10/30 07:52:49;;;;;;;41.58;19.77;;;4.50;99.90;;;;;;5011095;28;20183;-75
2021/10/30 07:55:15;;;;;;;55.13;22.70;;;4.80;99.90;;;;;;5028655;28;20170;-75
2021/10/30 07:57:41;;;;;;;56.20;24.23;;;5.00;99.90;;;;;;5028648;28;20177;-77
2021/10/30 08:00:08;;;;;;;52.33;24.13;;;4.90;99.90;;;;;;5029729;28;20194;-77
2021/10/30 08:02:38;;;;;;;52.88;22.05;;;5.10;99.90;;;;;;5037951;28;20226;-76
2021/10/30 08:05:07;;;;;;;49.22;25.15;;;5.30;99.90;;;;;;5029965;28;20189;-77
2021/10/30 08:07:34;;;;;;;46.70;23.35;;;5.60;99.90;;;;;;5028405;28;20540;-77
2021/10/30 08:10:06;;;;;;;46.60;22.23;;;5.30;99.90;;;;;;5028104;28;20217;-76
2021/10/30 08:12:32;;;;;;;43.35;23.40;;;5.40;99.90;;;;;;5029150;28;20210;-75
2021/10/30 08:14:59;;;;;;;54.92;23.63;;;5.70;99.90;;;;;;5029723;28;20583;-77
2021/10/30 08:17:26;;;;;;;46.72;23.05;;;6.00;99.90;;;;;;5029484;28;20592;-77
2021/10/30 08:19:51;;;;;;;45.92;22.45;;;6.50;99.90;;;;;;5016881;28;20222;-77
2021/10/30 08:22:17;;;;;;;48.08;22.20;;;7.00;99.90;;;;;;5008497;28;20182;-76
2021/10/30 08:24:46;;;;;;;39.78;20.48;;;7.00;99.90;;;;;;5008581;28;20198;-75
2021/10/30 08:27:13;;;;;;;37.13;20.35;;;7.20;99.90;;;;;;5009685;28;20177;-77
2021/10/30 08:29:41;;;;;;;32.92;18.63;;;6.50;99.90;;;;;;5007983;28;20236;-79
2021/10/30 08:32:09;;;;;;;32.35;18.52;;;6.30;99.90;;;;;;5008229;28;20167;-75
2021/10/30 08:34:36;;;;;;;37.78;18.60;;;6.40;99.90;;;;;;5008263;28;20182;-75
2021/10/30 08:37:01;;;;;;;33.25;18.98;;;6.40;99.90;;;;;;5009684;28;20625;-75
2021/10/30 08:39:28;;;;;;;37.28;18.73;;;6.30;99.90;;;;;;5008108;28;20199;-75
2021/10/30 08:41:54;;;;;;;33.47;17.50;;;6.40;99.90;;;;;;5009717;28;20170;-75
2021/10/30 08:44:21;;;;;;;38.13;19.58;;;6.30;99.90;;;;;;5008312;28;20186;-75
2021/10/30 08:46:50;;;;;;;35.83;18.90;;;6.70;99.90;;;;;;5009611;28;20601;-76
2021/10/30 08:49:19;;;;;;;38.53;19.33;;;7.10;99.90;;;;;;5009301;28;20276;-76
2021/10/30 08:51:45;;;;;;;31.65;18.52;;;7.20;99.90;;;;;;5008179;28;20193;-75
2021/10/30 08:54:12;;;;;;;37.33;20.50;;;7.60;99.90;;;;;;5022182;28;20166;-76
2021/10/30 08:56:39;;;;;;;36.03;19.65;;;8.40;99.90;;;;;;5028964;28;20197;-76
2021/10/30 08:59:07;;;;;;;33.67;19.33;;;9.90;99.90;;;;;;5028984;28;20185;-77
2021/10/30 09:01:48;;;;;;;33.33;17.27;;;10.40;99.90;;;;;;5043660;28;20233;-76
2021/10/30 09:04:18;;;;;;;30.30;17.50;;;10.70;99.90;;;;;;5028897;28;20162;-76
2021/10/30 09:07:05;;;;;;;29.05;17.67;;;10.50;99.90;;;;;;5043998;28;20197;-74
2021/10/30 09:09:33;;;;;;;27.25;17.75;;;10.40;99.90;;;;;;5028627;28;20273;-76
2021/10/30 09:12:01;;;;;;;30.38;17.08;;;11.10;99.90;;;;;;5028774;28;20237;-76
2021/10/30 09:14:43;;;;;;;31.38;17.55;;;11.90;99.90;;;;;;5043942;28;20170;-76
2021/10/30 09:17:12;;;;;;;28.90;17.67;;;11.50;99.90;;;;;;5028741;28;20222;-76
2021/10/30 09:19:52;;;;;;;31.25;17.52;;;11.20;99.90;;;;;;5043819;28;20240;-75
2021/10/30 09:22:20;;;;;;;27.40;17.60;;;11.70;99.90;;;;;;5027442;28;20174;-76
2021/10/30 09:25:05;;;;;;;29.27;16.20;;;12.30;99.90;;;;;;5044035;28;20174;-75
2021/10/30 09:27:48;;;;;;;28.50;16.40;;;12.30;99.90;;;;;;5028529;28;20226;-76
2021/10/30 09:30:15;;;;;;;25.55;17.33;;;12.60;99.90;;;;;;5026860;28;20645;-76
2021/10/30 09:32:54;;;;;;;28.23;16.15;;;12.10;99.90;;;;;;5028687;28;20162;-76
2021/10/30 09:35:26;;;;;;;23.95;14.90;;;11.60;99.90;;;;;;5043783;28;20203;-76
2021/10/30 09:37:53;;;;;;;26.73;16.17;;;12.00;99.90;;;;;;5027147;28;20170;-75
2021/10/30 09:40:30;;;;;;;22.58;15.48;;;12.80;99.90;;;;;;5027179;28;20201;-76
2021/10/30 09:43:23;;;;;;;28.83;16.33;;;12.70;99.90;;;;;;5043540;28;20170;-76
2021/10/30 09:45:54;;;;;;;25.08;16.08;;;12.20;99.90;;;;;;5022572;28;20241;-76
2021/10/30 09:48:23;;;;;;;29.08;17.42;;;11.60;99.90;;;;;;5012319;28;20162;-75
2021/10/30 09:50:52;;;;;;;30.90;17.88;;;12.00;99.90;;;;;;5012280;28;20210;-76
2021/10/30 09:53:29;;;;;;;30.75;17.85;;;11.50;99.90;;;;;;5033987;28;20201;-75
2021/10/30 09:56:06;;;;;;;29.90;17.60;;;11.50;99.90;;;;;;5030764;28;20174;-76
2021/10/30 09:58:43;;;;;;;25.10;16.27;;;11.90;99.90;;;;;;5030550;28;20170;-75
2021/10/30 10:01:18;;;;;;;31.50;17.20;;;11.90;99.90;;;;;;5031690;28;20193;-76
2021/10/30 10:03:49;;;;;;;26.67;17.83;;;12.10;99.90;;;;;;5051608;28;20183;-75
2021/10/30 10:06:22;;;;;;;27.77;16.50;;;12.10;99.90;;;;;;5051702;28;20164;-76
2021/10/30 10:08:49;;;;;;;24.85;17.20;;;12.90;99.90;;;;;;5051441;28;20158;-76
2021/10/30 10:11:17;;;;;;;26.17;16.60;;;12.50;99.90;;;;;;5051576;28;20700;-76
2021/10/30 10:13:49;;;;;;;28.75;16.73;;;12.80;99.90;;;;;;5051362;28;20154;-76
2021/10/30 10:16:19;;;;;;;24.75;16.50;;;12.50;99.90;;;;;;5051668;28;20153;-76
2021/10/30 10:18:49;;;;;;;28.02;17.08;;;12.40;99.90;;;;;;5051295;28;20221;-75
2021/10/30 10:21:26;;;;;;;24.75;17.17;;;12.60;99.90;;;;;;5033367;28;20189;-75
2021/10/30 10:23:56;;;;;;;29.38;17.70;;;12.30;99.90;;;;;;5051455;28;20165;-76
2021/10/30 10:26:45;;;;;;;24.15;16.65;;;12.60;99.90;;;;;;5033610;28;20172;-77
2021/10/30 10:29:27;;;;;;;26.00;15.52;;;13.90;99.90;;;;;;5033359;28;20193;-76
2021/10/30 10:31:54;;;;;;;23.73;16.30;;;14.20;99.90;;;;;;5050995;28;20161;-76
2021/10/30 10:34:28;;;;;;;23.80;15.30;;;14.30;99.90;;;;;;5050833;28;20157;-75
2021/10/30 10:37:12;;;;;;;24.45;15.60;;;13.70;99.90;;;;;;5033038;28;20168;-76
2021/10/30 10:39:41;;;;;;;26.60;16.55;;;13.90;99.90;;;;;;5032576;28;20212;-75
2021/10/30 10:42:27;;;;;;;21.77;14.40;;;13.90;99.90;;;;;;5050397;28;20161;-76
2021/10/30 10:44:54;;;;;;;24.73;16.15;;;13.70;99.90;;;;;;5032924;28;20260;-75
2021/10/30 10:47:35;;;;;;;23.25;14.82;;;14.00;99.90;;;;;;5050891;28;20176;-76
2021/10/30 10:50:23;;;;;;;25.20;14.48;;;13.40;99.90;;;;;;5050885;28;20539;-76
2021/10/30 10:53:06;;;;;;;22.13;14.23;;;13.30;99.90;;;;;;5032959;28;20173;-75
2021/10/30 10:55:34;;;;;;;24.00;13.73;;;13.50;99.90;;;;;;5032687;28;20192;-75
2021/10/30 10:58:10;;;;;;;21.48;13.13;;;13.70;99.90;;;;;;5050584;28;20649;-75
2021/10/30 11:00:36;;;;;;;19.83;12.70;;;13.70;99.90;;;;;;5050530;28;20291;-76
2021/10/30 11:03:03;;;;;;;23.50;13.48;;;13.50;99.90;;;;;;5050297;28;20221;-76
2021/10/30 11:05:31;;;;;;;20.45;12.82;;;14.20;99.90;;;;;;5050550;28;20173;-76
2021/10/30 11:07:57;;;;;;;22.17;13.30;;;14.00;99.90;;;;;;5050478;28;20149;-75
2021/10/30 11:10:27;;;;;;;21.83;13.18;;;14.50;99.90;;;;;;5050360;28;20265;-76
2021/10/30 11:13:02;;;;;;;20.52;13.80;;;14.20;99.90;;;;;;5050349;28;20157;-75
2021/10/30 11:15:29;;;;;;;19.80;14.32;;;15.20;99.90;;;;;;5050324;28;20624;-75
2021/10/30 11:18:09;;;;;;;20.77;14.70;;;14.10;99.90;;;;;;5049879;28;20253;-76
2021/10/30 11:20:45;;;;;;;22.77;14.13;;;13.80;99.90;;;;;;5049274;28;20215;-75
2021/10/30 11:23:30;;;;;;;22.52;14.15;;;14.20;99.90;;;;;;5049739;28;20161;-75
2021/10/30 11:26:10;;;;;;;23.58;14.98;;;13.80;99.90;;;;;;5049524;28;20213;-76
2021/10/30 11:28:39;;;;;;;21.90;14.70;;;14.70;99.90;;;;;;5049626;28;20164;-76
2021/10/30 11:31:14;;;;;;;21.23;13.30;;;15.00;99.90;;;;;;5049822;28;20570;-76
2021/10/30 11:33:41;;;;;;;19.85;13.45;;;14.60;99.90;;;;;;5049791;28;20145;-75
2021/10/30 11:36:12;;;;;;;20.05;13.55;;;14.80;99.90;;;;;;5049573;28;20224;-76
2021/10/30 11:39:00;;;;;;;18.30;12.85;;;14.20;99.90;;;;;;5049751;28;20164;-75
2021/10/30 11:41:31;;;;;;;20.67;11.90;;;13.50;99.90;;;;;;5049632;28;20189;-75
2021/10/30 11:44:18;;;;;;;19.73;11.93;;;13.80;99.90;;;;;;5049324;28;20164;-76
2021/10/30 11:46:46;;;;;;;14.68;9.52;;;13.60;99.90;;;;;;5028176;28;20180;-76
2021/10/30 11:49:22;;;;;;;21.02;12.90;;;14.20;99.90;;;;;;5029395;28;20681;-76
2021/10/30 11:51:49;;;;;;;17.67;11.27;;;14.60;99.90;;;;;;5029832;28;20164;-76
2021/10/30 11:54:15;;;;;;;15.30;9.50;;;15.10;99.90;;;;;;5044264;28;20170;-76
2021/10/30 11:56:44;;;;;;;16.75;10.45;;;14.80;99.90;;;;;;5049464;28;20162;-75
2021/10/30 11:59:11;;;;;;;15.35;10.02;;;15.00;99.90;;;;;;5031301;28;20172;-76
2021/10/30 12:01:41;;;;;;;16.80;9.55;;;14.70;99.90;;;;;;5049069;28;20209;-75
2021/10/30 12:04:17;;;;;;;16.38;9.20;;;14.10;99.90;;;;;;5049398;28;20173;-76
2021/10/30 12:06:54;;;;;;;13.98;9.25;;;14.00;99.90;;;;;;5048799;28;20180;-76
2021/10/30 12:09:20;;;;;;;12.93;9.23;;;14.20;99.90;;;;;;5049107;28;20196;-75
2021/10/30 12:11:48;;;;;;;15.48;9.60;;;13.50;99.90;;;;;;5031417;28;20178;-75
2021/10/30 12:14:30;;;;;;;15.30;10.27;;;12.50;99.90;;;;;;5049135;28;20154;-75
2021/10/30 12:17:00;;;;;;;17.05;9.88;;;11.40;99.90;;;;;;5049021;28;20154;-75
2021/10/30 12:19:28;;;;;;;15.27;9.07;;;11.00;99.90;;;;;;5048874;28;20168;-75
2021/10/30 12:22:17;;;;;;;15.00;9.43;;;10.90;99.90;;;;;;5031209;28;20196;-76
2021/10/30 12:24:44;;;;;;;18.35;9.48;;;10.80;99.90;;;;;;5049055;28;20597;-75
2021/10/30 12:27:10;;;;;;;17.30;9.32;;;10.90;99.90;;;;;;5049159;28;20177;-76
2021/10/30 12:29:45;;;;;;;18.83;9.02;;;11.10;99.90;;;;;;5031150;28;20673;-75
2021/10/30 12:32:13;;;;;;;15.48;8.35;;;11.30;99.90;;;;;;5049011;28;20287;-76
2021/10/30 12:35:00;;;;;;;14.63;9.13;;;11.20;99.90;;;;;;5049224;28;20187;-76
2021/10/30 12:37:30;;;;;;;11.93;8.40;;;11.10;99.90;;;;;;5048501;28;20188;-75
2021/10/30 12:40:06;;;;;;;14.98;8.32;;;11.00;99.90;;;;;;5031239;28;20268;-76
2021/10/30 12:42:32;;;;;;;14.88;8.52;;;10.90;99.90;;;;;;5048907;28;20183;-75